sensor_id;sensor_type;location;lat;lon;timestamp;noise_LAeq;noise_LA_min;noise_LA_max;noise_LA01;noise_LA95
69608;Laerm;57251;52.248;4.812;2023-05-24T00:00:07;33.92;32.22;35.68;;
69608;Laerm;57251;52.248;4.812;2023-05-24T00:00:21;34.34;32.38;36.70;;
69608;Laerm;57251;52.248;4.812;2023-05-24T00:00:31;34.07;32.00;35.76;;
69608;Laerm;57251;52.248;4.812;2023-05-24T00:00:42;34.91;32.94;36.77;;
69608;Laerm;57251;52.248;4.812;2023-05-24T00:00:52;34.60;33.00;36.58;;
69608;Laerm;57251;52.248;4.812;2023-05-24T00:01:02;34.27;32.59;36.12;;
69608;Laerm;57251;52.248;4.812;2023-05-24T00:01:13;34.08;32.08;35.95;;
69608;Laerm;57251;52.248;4.812;2023-05-24T00:01:23;33.66;31.78;35.13;;
69608;Laerm;57251;52.248;4.812;2023-05-24T00:01:36;33.51;31.72;35.45;;
69608;Laerm;57251;52.248;4.812;2023-05-24T00:01:47;34.08;32.14;35.90;;
69608;Laerm;57251;52.248;4.812;2023-05-24T00:01:57;34.66;32.55;36.91;;
69608;Laerm;57251;52.248;4.812;2023-05-24T00:02:08;35.29;32.78;40.17;;
69608;Laerm;57251;52.248;4.812;2023-05-24T00:02:19;36.12;33.32;42.04;;
69608;Laerm;57251;52.248;4.812;2023-05-24T00:02:29;36.72;33.23;41.24;;
69608;Laerm;57251;52.248;4.812;2023-05-24T00:02:40;36.51;33.05;41.84;;
69608;Laerm;57251;52.248;4.812;2023-05-24T00:02:52;36.72;33.03;42.21;;
69608;Laerm;57251;52.248;4.812;2023-05-24T00:03:03;35.79;32.80;39.91;;
69608;Laerm;57251;52.248;4.812;2023-05-24T00:03:13;35.77;32.83;39.87;;
69608;Laerm;57251;52.248;4.812;2023-05-24T00:03:25;35.39;32.31;39.62;;
69608;Laerm;57251;52.248;4.812;2023-05-24T00:03:35;34.83;32.89;37.54;;
69608;Laerm;57251;52.248;4.812;2023-05-24T00:03:48;34.69;32.55;39.38;;
69608;Laerm;57251;52.248;4.812;2023-05-24T00:03:58;34.38;32.68;37.69;;
69608;Laerm;57251;52.248;4.812;2023-05-24T00:04:09;34.52;32.25;36.34;;
69608;Laerm;57251;52.248;4.812;2023-05-24T00:04:19;33.97;32.28;35.85;;
69608;Laerm;57251;52.248;4.812;2023-05-24T00:04:30;34.32;32.12;37.64;;
69608;Laerm;57251;52.248;4.812;2023-05-24T00:04:41;33.94;32.19;36.02;;
69608;Laerm;57251;52.248;4.812;2023-05-24T00:04:51;33.82;32.05;35.43;;
69608;Laerm;57251;52.248;4.812;2023-05-24T00:05:01;33.44;31.59;34.99;;
69608;Laerm;57251;52.248;4.812;2023-05-24T00:05:12;33.79;32.15;36.40;;
69608;Laerm;57251;52.248;4.812;2023-05-24T00:05:23;33.64;32.00;38.31;;
69608;Laerm;57251;52.248;4.812;2023-05-24T00:05:34;33.90;32.01;36.15;;
69608;Laerm;57251;52.248;4.812;2023-05-24T00:05:46;33.24;31.76;37.76;;
69608;Laerm;57251;52.248;4.812;2023-05-24T00:05:56;33.40;32.06;34.88;;
69608;Laerm;57251;52.248;4.812;2023-05-24T00:06:07;33.63;32.04;35.20;;
69608;Laerm;57251;52.248;4.812;2023-05-24T00:06:19;33.65;31.92;35.13;;
69608;Laerm;57251;52.248;4.812;2023-05-24T00:06:30;34.19;32.40;35.98;;
69608;Laerm;57251;52.248;4.812;2023-05-24T00:06:43;35.75;33.53;38.08;;
69608;Laerm;57251;52.248;4.812;2023-05-24T00:06:54;35.57;33.53;39.95;;
69608;Laerm;57251;52.248;4.812;2023-05-24T00:07:05;35.80;33.05;39.20;;
69608;Laerm;57251;52.248;4.812;2023-05-24T00:07:15;36.02;32.62;40.69;;
69608;Laerm;57251;52.248;4.812;2023-05-24T00:07:25;36.11;32.96;40.35;;
69608;Laerm;57251;52.248;4.812;2023-05-24T00:07:36;36.79;33.81;40.94;;
69608;Laerm;57251;52.248;4.812;2023-05-24T00:07:46;35.92;32.86;40.03;;
69608;Laerm;57251;52.248;4.812;2023-05-24T00:07:57;35.14;32.52;38.30;;
69608;Laerm;57251;52.248;4.812;2023-05-24T00:08:08;34.84;32.35;38.63;;
69608;Laerm;57251;52.248;4.812;2023-05-24T00:08:18;34.22;32.15;39.81;;
69608;Laerm;57251;52.248;4.812;2023-05-24T00:08:28;33.86;32.15;36.26;;
69608;Laerm;57251;52.248;4.812;2023-05-24T00:08:38;34.44;32.66;37.03;;
69608;Laerm;57251;52.248;4.812;2023-05-24T00:08:49;35.37;32.91;37.68;;
69608;Laerm;57251;52.248;4.812;2023-05-24T00:08:59;34.01;31.67;37.48;;
69608;Laerm;57251;52.248;4.812;2023-05-24T00:09:09;33.83;32.32;35.54;;
69608;Laerm;57251;52.248;4.812;2023-05-24T00:09:20;33.58;31.85;34.86;;
69608;Laerm;57251;52.248;4.812;2023-05-24T00:09:31;33.80;31.79;36.05;;
69608;Laerm;57251;52.248;4.812;2023-05-24T00:09:41;33.91;32.27;35.72;;
69608;Laerm;57251;52.248;4.812;2023-05-24T00:09:51;33.38;31.87;35.32;;
69608;Laerm;57251;52.248;4.812;2023-05-24T00:10:02;33.21;32.05;34.82;;
69608;Laerm;57251;52.248;4.812;2023-05-24T00:10:13;33.47;31.75;35.02;;
69608;Laerm;57251;52.248;4.812;2023-05-24T00:10:23;33.28;31.71;34.91;;
69608;Laerm;57251;52.248;4.812;2023-05-24T00:10:34;33.27;31.79;34.56;;
69608;Laerm;57251;52.248;4.812;2023-05-24T00:10:44;33.89;32.05;36.09;;
69608;Laerm;57251;52.248;4.812;2023-05-24T00:10:54;34.25;32.39;36.28;;
69608;Laerm;57251;52.248;4.812;2023-05-24T00:11:04;33.17;31.73;34.67;;
69608;Laerm;57251;52.248;4.812;2023-05-24T00:11:15;33.14;31.69;34.29;;
69608;Laerm;57251;52.248;4.812;2023-05-24T00:11:25;33.05;31.41;34.46;;
69608;Laerm;57251;52.248;4.812;2023-05-24T00:11:36;33.06;31.53;34.85;;
69608;Laerm;57251;52.248;4.812;2023-05-24T00:11:46;33.07;31.31;35.32;;
69608;Laerm;57251;52.248;4.812;2023-05-24T00:11:57;33.29;31.45;37.75;;
69608;Laerm;57251;52.248;4.812;2023-05-24T00:12:07;34.98;32.09;53.22;;
69608;Laerm;57251;52.248;4.812;2023-05-24T00:12:17;33.37;31.56;35.11;;
69608;Laerm;57251;52.248;4.812;2023-05-24T00:12:28;33.05;31.42;34.50;;
69608;Laerm;57251;52.248;4.812;2023-05-24T00:12:38;33.35;31.90;35.10;;
69608;Laerm;57251;52.248;4.812;2023-05-24T00:12:48;33.80;31.80;35.40;;
69608;Laerm;57251;52.248;4.812;2023-05-24T00:12:58;33.59;32.06;35.11;;
69608;Laerm;57251;52.248;4.812;2023-05-24T00:13:08;33.46;31.98;35.07;;
69608;Laerm;57251;52.248;4.812;2023-05-24T00:13:19;33.51;31.78;34.82;;
69608;Laerm;57251;52.248;4.812;2023-05-24T00:13:29;33.67;32.14;35.17;;
69608;Laerm;57251;52.248;4.812;2023-05-24T00:13:39;35.21;32.80;37.35;;
69608;Laerm;57251;52.248;4.812;2023-05-24T00:13:49;34.07;32.53;36.30;;
69608;Laerm;57251;52.248;4.812;2023-05-24T00:13:59;33.93;32.14;35.54;;
69608;Laerm;57251;52.248;4.812;2023-05-24T00:14:10;33.84;32.32;35.74;;
69608;Laerm;57251;52.248;4.812;2023-05-24T00:14:20;34.36;32.85;36.34;;
69608;Laerm;57251;52.248;4.812;2023-05-24T00:14:30;34.79;32.70;36.70;;
69608;Laerm;57251;52.248;4.812;2023-05-24T00:14:41;35.06;33.39;36.50;;
69608;Laerm;57251;52.248;4.812;2023-05-24T00:14:51;35.01;32.95;37.11;;
69608;Laerm;57251;52.248;4.812;2023-05-24T00:15:01;33.94;32.13;35.68;;
69608;Laerm;57251;52.248;4.812;2023-05-24T00:15:11;33.88;32.36;35.22;;
69608;Laerm;57251;52.248;4.812;2023-05-24T00:15:21;33.96;32.05;36.70;;
69608;Laerm;57251;52.248;4.812;2023-05-24T00:15:32;33.67;31.66;38.14;;
69608;Laerm;57251;52.248;4.812;2023-05-24T00:15:42;33.80;32.54;35.63;;
69608;Laerm;57251;52.248;4.812;2023-05-24T00:15:52;33.78;32.03;35.48;;
69608;Laerm;57251;52.248;4.812;2023-05-24T00:16:02;33.40;31.99;34.66;;
69608;Laerm;57251;52.248;4.812;2023-05-24T00:16:13;33.98;32.06;36.39;;
69608;Laerm;57251;52.248;4.812;2023-05-24T00:16:23;34.39;32.79;36.20;;
69608;Laerm;57251;52.248;4.812;2023-05-24T00:16:33;34.37;32.18;37.95;;
69608;Laerm;57251;52.248;4.812;2023-05-24T00:16:45;35.12;33.17;37.00;;
69608;Laerm;57251;52.248;4.812;2023-05-24T00:16:55;34.35;32.76;36.01;;
69608;Laerm;57251;52.248;4.812;2023-05-24T00:17:05;33.71;32.06;35.29;;
69608;Laerm;57251;52.248;4.812;2023-05-24T00:17:15;34.15;32.51;36.31;;
69608;Laerm;57251;52.248;4.812;2023-05-24T00:17:26;35.32;33.34;37.62;;
69608;Laerm;57251;52.248;4.812;2023-05-24T00:17:39;35.23;32.24;37.72;;
69608;Laerm;57251;52.248;4.812;2023-05-24T00:17:51;33.96;32.50;35.98;;
69608;Laerm;57251;52.248;4.812;2023-05-24T00:18:02;33.80;31.82;35.29;;
69608;Laerm;57251;52.248;4.812;2023-05-24T00:18:12;33.87;32.34;35.57;;
69608;Laerm;57251;52.248;4.812;2023-05-24T00:18:22;34.00;32.60;35.48;;
69608;Laerm;57251;52.248;4.812;2023-05-24T00:18:32;34.28;32.80;36.15;;
69608;Laerm;57251;52.248;4.812;2023-05-24T00:18:42;33.85;32.01;35.22;;
69608;Laerm;57251;52.248;4.812;2023-05-24T00:18:55;34.01;32.03;35.73;;
69608;Laerm;57251;52.248;4.812;2023-05-24T00:19:08;34.93;32.12;38.14;;
69608;Laerm;57251;52.248;4.812;2023-05-24T00:19:20;34.16;31.92;37.27;;
69608;Laerm;57251;52.248;4.812;2023-05-24T00:19:30;35.02;33.13;37.00;;
69608;Laerm;57251;52.248;4.812;2023-05-24T00:19:41;34.10;32.17;36.66;;
69608;Laerm;57251;52.248;4.812;2023-05-24T00:19:51;34.06;32.29;35.54;;
69608;Laerm;57251;52.248;4.812;2023-05-24T00:20:02;33.65;31.87;35.56;;
69608;Laerm;57251;52.248;4.812;2023-05-24T00:20:12;33.75;32.09;35.43;;
69608;Laerm;57251;52.248;4.812;2023-05-24T00:20:23;33.89;32.07;38.69;;
69608;Laerm;57251;52.248;4.812;2023-05-24T00:20:33;33.52;32.01;35.14;;
69608;Laerm;57251;52.248;4.812;2023-05-24T00:20:43;34.85;31.94;45.22;;
69608;Laerm;57251;52.248;4.812;2023-05-24T00:20:54;33.41;31.45;34.73;;
69608;Laerm;57251;52.248;4.812;2023-05-24T00:21:06;33.68;31.65;35.05;;
69608;Laerm;57251;52.248;4.812;2023-05-24T00:21:17;33.47;32.13;34.85;;
69608;Laerm;57251;52.248;4.812;2023-05-24T00:21:27;33.18;31.50;34.66;;
69608;Laerm;57251;52.248;4.812;2023-05-24T00:21:37;33.19;31.73;34.47;;
69608;Laerm;57251;52.248;4.812;2023-05-24T00:21:48;33.33;30.64;34.92;;
69608;Laerm;57251;52.248;4.812;2023-05-24T00:21:58;33.03;31.50;34.46;;
69608;Laerm;57251;52.248;4.812;2023-05-24T00:22:08;33.01;31.40;34.89;;
69608;Laerm;57251;52.248;4.812;2023-05-24T00:22:18;33.21;31.82;35.05;;
69608;Laerm;57251;52.248;4.812;2023-05-24T00:22:30;33.93;31.65;37.12;;
69608;Laerm;57251;52.248;4.812;2023-05-24T00:22:40;32.91;31.29;34.49;;
69608;Laerm;57251;52.248;4.812;2023-05-24T00:22:51;33.97;31.37;46.48;;
69608;Laerm;57251;52.248;4.812;2023-05-24T00:23:01;32.77;31.26;34.24;;
69608;Laerm;57251;52.248;4.812;2023-05-24T00:23:11;32.81;31.08;34.16;;
69608;Laerm;57251;52.248;4.812;2023-05-24T00:23:21;33.14;31.20;37.07;;
69608;Laerm;57251;52.248;4.812;2023-05-24T00:23:32;32.90;31.31;34.39;;
69608;Laerm;57251;52.248;4.812;2023-05-24T00:23:42;32.92;31.45;34.22;;
69608;Laerm;57251;52.248;4.812;2023-05-24T00:23:53;33.01;31.26;34.43;;
69608;Laerm;57251;52.248;4.812;2023-05-24T00:24:03;33.67;31.42;45.14;;
69608;Laerm;57251;52.248;4.812;2023-05-24T00:24:13;32.94;31.86;34.12;;
69608;Laerm;57251;52.248;4.812;2023-05-24T00:24:23;33.16;31.89;34.65;;
69608;Laerm;57251;52.248;4.812;2023-05-24T00:24:34;33.21;31.64;34.76;;
69608;Laerm;57251;52.248;4.812;2023-05-24T00:24:44;33.18;31.65;34.66;;
69608;Laerm;57251;52.248;4.812;2023-05-24T00:24:54;33.17;31.64;34.49;;
69608;Laerm;57251;52.248;4.812;2023-05-24T00:25:04;33.20;31.69;34.49;;
69608;Laerm;57251;52.248;4.812;2023-05-24T00:25:15;32.98;31.77;34.68;;
69608;Laerm;57251;52.248;4.812;2023-05-24T00:25:25;33.31;31.76;35.28;;
69608;Laerm;57251;52.248;4.812;2023-05-24T00:25:35;33.54;31.82;35.06;;
69608;Laerm;57251;52.248;4.812;2023-05-24T00:25:45;33.05;31.54;34.43;;
69608;Laerm;57251;52.248;4.812;2023-05-24T00:25:55;33.74;31.91;36.40;;
69608;Laerm;57251;52.248;4.812;2023-05-24T00:26:06;33.79;32.11;36.15;;
69608;Laerm;57251;52.248;4.812;2023-05-24T00:26:16;33.93;31.65;37.71;;
69608;Laerm;57251;52.248;4.812;2023-05-24T00:26:27;35.32;32.34;38.69;;
69608;Laerm;57251;52.248;4.812;2023-05-24T00:26:37;33.15;31.35;35.25;;
69608;Laerm;57251;52.248;4.812;2023-05-24T00:26:47;33.53;31.41;35.93;;
69608;Laerm;57251;52.248;4.812;2023-05-24T00:26:57;33.84;31.75;37.02;;
69608;Laerm;57251;52.248;4.812;2023-05-24T00:27:07;32.99;31.27;34.84;;
69608;Laerm;57251;52.248;4.812;2023-05-24T00:27:18;33.25;31.76;35.20;;
69608;Laerm;57251;52.248;4.812;2023-05-24T00:27:28;33.45;32.12;34.95;;
69608;Laerm;57251;52.248;4.812;2023-05-24T00:27:38;33.00;31.12;34.22;;
69608;Laerm;57251;52.248;4.812;2023-05-24T00:27:49;33.03;31.42;34.80;;
69608;Laerm;57251;52.248;4.812;2023-05-24T00:27:59;33.09;31.25;34.17;;
69608;Laerm;57251;52.248;4.812;2023-05-24T00:28:09;33.77;32.01;36.43;;
69608;Laerm;57251;52.248;4.812;2023-05-24T00:28:19;32.92;31.31;34.71;;
69608;Laerm;57251;52.248;4.812;2023-05-24T00:28:30;33.05;31.65;34.51;;
69608;Laerm;57251;52.248;4.812;2023-05-24T00:28:40;33.28;31.94;35.26;;
69608;Laerm;57251;52.248;4.812;2023-05-24T00:28:50;33.39;31.72;34.94;;
69608;Laerm;57251;52.248;4.812;2023-05-24T00:29:01;33.18;31.28;34.77;;
69608;Laerm;57251;52.248;4.812;2023-05-24T00:29:11;33.19;31.41;34.72;;
69608;Laerm;57251;52.248;4.812;2023-05-24T00:29:21;33.27;31.93;35.07;;
69608;Laerm;57251;52.248;4.812;2023-05-24T00:29:31;33.48;31.93;34.74;;
69608;Laerm;57251;52.248;4.812;2023-05-24T00:29:41;33.31;31.32;34.99;;
69608;Laerm;57251;52.248;4.812;2023-05-24T00:29:52;33.29;31.89;34.71;;
69608;Laerm;57251;52.248;4.812;2023-05-24T00:30:02;33.70;31.97;35.68;;
69608;Laerm;57251;52.248;4.812;2023-05-24T00:30:13;33.82;32.43;35.04;;
69608;Laerm;57251;52.248;4.812;2023-05-24T00:30:23;33.27;31.54;34.57;;
69608;Laerm;57251;52.248;4.812;2023-05-24T00:30:33;33.00;31.54;34.28;;
69608;Laerm;57251;52.248;4.812;2023-05-24T00:30:43;33.30;31.72;35.33;;
69608;Laerm;57251;52.248;4.812;2023-05-24T00:30:54;34.57;31.74;38.15;;
69608;Laerm;57251;52.248;4.812;2023-05-24T00:31:04;35.61;32.63;40.93;;
69608;Laerm;57251;52.248;4.812;2023-05-24T00:31:14;36.89;33.06;43.52;;
69608;Laerm;57251;52.248;4.812;2023-05-24T00:31:24;37.93;34.00;43.99;;
69608;Laerm;57251;52.248;4.812;2023-05-24T00:31:34;37.69;33.83;42.97;;
69608;Laerm;57251;52.248;4.812;2023-05-24T00:31:45;36.67;33.73;40.78;;
69608;Laerm;57251;52.248;4.812;2023-05-24T00:31:55;37.27;32.64;45.24;;
69608;Laerm;57251;52.248;4.812;2023-05-24T00:32:05;36.00;33.09;41.43;;
69608;Laerm;57251;52.248;4.812;2023-05-24T00:32:15;35.84;32.52;41.46;;
69608;Laerm;57251;52.248;4.812;2023-05-24T00:32:26;35.45;33.25;39.83;;
69608;Laerm;57251;52.248;4.812;2023-05-24T00:32:36;34.47;31.91;38.83;;
69608;Laerm;57251;52.248;4.812;2023-05-24T00:32:46;34.28;32.45;37.26;;
69608;Laerm;57251;52.248;4.812;2023-05-24T00:32:56;34.19;32.24;37.16;;
69608;Laerm;57251;52.248;4.812;2023-05-24T00:33:07;34.37;31.81;37.26;;
69608;Laerm;57251;52.248;4.812;2023-05-24T00:33:17;34.62;32.16;37.71;;
69608;Laerm;57251;52.248;4.812;2023-05-24T00:33:27;33.91;32.18;35.92;;
69608;Laerm;57251;52.248;4.812;2023-05-24T00:33:38;33.53;31.88;35.04;;
69608;Laerm;57251;52.248;4.812;2023-05-24T00:33:48;33.73;31.98;35.42;;
69608;Laerm;57251;52.248;4.812;2023-05-24T00:33:58;33.98;32.04;36.34;;
69608;Laerm;57251;52.248;4.812;2023-05-24T00:34:09;33.84;31.93;35.70;;
69608;Laerm;57251;52.248;4.812;2023-05-24T00:34:19;34.47;32.69;36.72;;
69608;Laerm;57251;52.248;4.812;2023-05-24T00:34:29;33.70;31.91;35.46;;
69608;Laerm;57251;52.248;4.812;2023-05-24T00:34:39;33.93;31.81;35.63;;
69608;Laerm;57251;52.248;4.812;2023-05-24T00:34:50;34.24;32.47;38.12;;
69608;Laerm;57251;52.248;4.812;2023-05-24T00:35:00;34.27;32.04;37.89;;
69608;Laerm;57251;52.248;4.812;2023-05-24T00:35:10;33.70;31.63;35.12;;
69608;Laerm;57251;52.248;4.812;2023-05-24T00:35:20;33.80;31.78;35.12;;
69608;Laerm;57251;52.248;4.812;2023-05-24T00:35:30;33.61;31.66;35.66;;
69608;Laerm;57251;52.248;4.812;2023-05-24T00:35:41;33.63;32.30;34.95;;
69608;Laerm;57251;52.248;4.812;2023-05-24T00:35:51;33.69;31.88;35.37;;
69608;Laerm;57251;52.248;4.812;2023-05-24T00:36:07;33.76;31.72;36.50;;
69608;Laerm;57251;52.248;4.812;2023-05-24T00:36:18;32.94;31.49;34.45;;
69608;Laerm;57251;52.248;4.812;2023-05-24T00:36:28;33.17;31.29;34.43;;
69608;Laerm;57251;52.248;4.812;2023-05-24T00:36:38;34.19;32.07;36.92;;
69608;Laerm;57251;52.248;4.812;2023-05-24T00:36:49;34.48;31.76;38.04;;
69608;Laerm;57251;52.248;4.812;2023-05-24T00:36:59;33.42;31.85;35.23;;
69608;Laerm;57251;52.248;4.812;2023-05-24T00:37:09;33.18;31.65;35.93;;
69608;Laerm;57251;52.248;4.812;2023-05-24T00:37:21;33.69;32.07;36.34;;
69608;Laerm;57251;52.248;4.812;2023-05-24T00:37:32;33.61;31.67;35.67;;
69608;Laerm;57251;52.248;4.812;2023-05-24T00:37:42;33.92;31.88;37.28;;
69608;Laerm;57251;52.248;4.812;2023-05-24T00:37:54;33.90;31.44;36.12;;
69608;Laerm;57251;52.248;4.812;2023-05-24T00:38:04;34.41;32.84;38.15;;
69608;Laerm;57251;52.248;4.812;2023-05-24T00:38:14;34.91;32.62;44.45;;
69608;Laerm;57251;52.248;4.812;2023-05-24T00:38:25;34.19;32.63;36.37;;
69608;Laerm;57251;52.248;4.812;2023-05-24T00:38:35;34.21;32.52;36.45;;
69608;Laerm;57251;52.248;4.812;2023-05-24T00:38:45;34.90;32.57;37.27;;
69608;Laerm;57251;52.248;4.812;2023-05-24T00:38:56;35.17;33.08;37.53;;
69608;Laerm;57251;52.248;4.812;2023-05-24T00:39:06;35.72;32.95;39.34;;
69608;Laerm;57251;52.248;4.812;2023-05-24T00:39:16;35.40;33.33;37.61;;
69608;Laerm;57251;52.248;4.812;2023-05-24T00:39:26;34.71;32.60;36.51;;
69608;Laerm;57251;52.248;4.812;2023-05-24T00:39:37;34.48;32.92;36.58;;
69608;Laerm;57251;52.248;4.812;2023-05-24T00:39:47;34.57;33.00;36.50;;
69608;Laerm;57251;52.248;4.812;2023-05-24T00:39:57;35.17;33.27;37.42;;
69608;Laerm;57251;52.248;4.812;2023-05-24T00:40:07;33.94;32.39;35.61;;
69608;Laerm;57251;52.248;4.812;2023-05-24T00:40:18;33.96;32.62;35.64;;
69608;Laerm;57251;52.248;4.812;2023-05-24T00:40:29;34.62;32.42;36.31;;
69608;Laerm;57251;52.248;4.812;2023-05-24T00:40:39;34.51;32.58;36.48;;
69608;Laerm;57251;52.248;4.812;2023-05-24T00:40:49;33.93;32.41;36.62;;
69608;Laerm;57251;52.248;4.812;2023-05-24T00:40:59;34.14;31.94;39.65;;
69608;Laerm;57251;52.248;4.812;2023-05-24T00:41:10;33.41;31.96;35.11;;
69608;Laerm;57251;52.248;4.812;2023-05-24T00:41:20;33.98;32.16;37.67;;
69608;Laerm;57251;52.248;4.812;2023-05-24T00:41:30;34.50;33.03;35.75;;
69608;Laerm;57251;52.248;4.812;2023-05-24T00:41:41;35.00;33.09;37.01;;
69608;Laerm;57251;52.248;4.812;2023-05-24T00:41:51;34.19;32.51;35.53;;
69608;Laerm;57251;52.248;4.812;2023-05-24T00:42:01;34.71;33.16;36.62;;
69608;Laerm;57251;52.248;4.812;2023-05-24T00:42:11;34.93;33.13;36.89;;
69608;Laerm;57251;52.248;4.812;2023-05-24T00:42:22;34.37;32.37;36.53;;
69608;Laerm;57251;52.248;4.812;2023-05-24T00:42:32;34.25;32.55;35.87;;
69608;Laerm;57251;52.248;4.812;2023-05-24T00:42:42;33.85;32.54;35.49;;
69608;Laerm;57251;52.248;4.812;2023-05-24T00:42:52;33.57;31.94;35.17;;
69608;Laerm;57251;52.248;4.812;2023-05-24T00:43:02;33.51;31.99;34.56;;
69608;Laerm;57251;52.248;4.812;2023-05-24T00:43:13;33.13;31.57;34.50;;
69608;Laerm;57251;52.248;4.812;2023-05-24T00:43:23;33.29;31.87;35.11;;
69608;Laerm;57251;52.248;4.812;2023-05-24T00:43:33;33.34;31.80;35.60;;
69608;Laerm;57251;52.248;4.812;2023-05-24T00:43:44;34.00;31.99;36.45;;
69608;Laerm;57251;52.248;4.812;2023-05-24T00:43:54;34.24;32.28;36.84;;
69608;Laerm;57251;52.248;4.812;2023-05-24T00:44:04;33.57;32.07;34.97;;
69608;Laerm;57251;52.248;4.812;2023-05-24T00:44:15;33.29;31.82;35.10;;
69608;Laerm;57251;52.248;4.812;2023-05-24T00:44:25;33.85;32.29;37.51;;
69608;Laerm;57251;52.248;4.812;2023-05-24T00:44:35;33.75;32.23;36.41;;
69608;Laerm;57251;52.248;4.812;2023-05-24T00:44:45;33.94;32.14;35.72;;
69608;Laerm;57251;52.248;4.812;2023-05-24T00:44:55;34.04;32.23;37.20;;
69608;Laerm;57251;52.248;4.812;2023-05-24T00:45:06;34.79;32.74;37.88;;
69608;Laerm;57251;52.248;4.812;2023-05-24T00:45:17;34.86;32.54;37.60;;
69608;Laerm;57251;52.248;4.812;2023-05-24T00:45:27;34.11;32.53;36.40;;
69608;Laerm;57251;52.248;4.812;2023-05-24T00:45:37;34.20;32.28;37.76;;
69608;Laerm;57251;52.248;4.812;2023-05-24T00:45:49;34.10;32.24;36.93;;
69608;Laerm;57251;52.248;4.812;2023-05-24T00:46:15;33.45;31.67;37.47;;
69608;Laerm;57251;52.248;4.812;2023-05-24T00:46:29;33.92;32.08;36.16;;
69608;Laerm;57251;52.248;4.812;2023-05-24T00:46:39;34.65;32.71;37.89;;
69608;Laerm;57251;52.248;4.812;2023-05-24T00:46:50;34.71;32.18;37.90;;
69608;Laerm;57251;52.248;4.812;2023-05-24T00:47:00;35.01;32.82;37.77;;
69608;Laerm;57251;52.248;4.812;2023-05-24T00:47:11;36.40;33.24;39.75;;
69608;Laerm;57251;52.248;4.812;2023-05-24T00:47:21;45.03;36.45;52.18;;
69608;Laerm;57251;52.248;4.812;2023-05-24T00:47:32;41.58;33.39;48.01;;
69608;Laerm;57251;52.248;4.812;2023-05-24T00:47:42;35.06;33.23;37.46;;
69608;Laerm;57251;52.248;4.812;2023-05-24T00:47:53;34.14;32.31;38.06;;
69608;Laerm;57251;52.248;4.812;2023-05-24T00:48:03;36.05;32.58;40.79;;
69608;Laerm;57251;52.248;4.812;2023-05-24T00:48:13;35.87;33.13;39.67;;
69608;Laerm;57251;52.248;4.812;2023-05-24T00:48:23;34.32;32.21;36.65;;
69608;Laerm;57251;52.248;4.812;2023-05-24T00:48:37;33.49;31.67;35.45;;
69608;Laerm;57251;52.248;4.812;2023-05-24T00:48:48;34.24;31.82;37.63;;
69608;Laerm;57251;52.248;4.812;2023-05-24T00:48:59;34.66;32.51;37.67;;
69608;Laerm;57251;52.248;4.812;2023-05-24T00:49:10;33.98;32.05;38.43;;
69608;Laerm;57251;52.248;4.812;2023-05-24T00:49:20;34.02;32.45;35.60;;
69608;Laerm;57251;52.248;4.812;2023-05-24T00:49:31;34.55;32.40;36.40;;
69608;Laerm;57251;52.248;4.812;2023-05-24T00:49:41;34.71;32.34;39.41;;
69608;Laerm;57251;52.248;4.812;2023-05-24T00:49:52;36.02;32.88;42.70;;
69608;Laerm;57251;52.248;4.812;2023-05-24T00:50:02;41.14;33.06;58.08;;
69608;Laerm;57251;52.248;4.812;2023-05-24T00:50:12;34.63;32.66;36.88;;
69608;Laerm;57251;52.248;4.812;2023-05-24T00:50:26;35.33;33.10;37.95;;
69608;Laerm;57251;52.248;4.812;2023-05-24T00:50:36;35.43;33.08;39.92;;
69608;Laerm;57251;52.248;4.812;2023-05-24T00:50:46;34.63;32.94;36.51;;
69608;Laerm;57251;52.248;4.812;2023-05-24T00:50:57;36.76;33.19;42.21;;
69608;Laerm;57251;52.248;4.812;2023-05-24T00:51:07;34.76;32.86;36.03;;
69608;Laerm;57251;52.248;4.812;2023-05-24T00:51:17;34.25;32.30;36.83;;
69608;Laerm;57251;52.248;4.812;2023-05-24T00:51:28;34.40;32.73;36.52;;
69608;Laerm;57251;52.248;4.812;2023-05-24T00:51:39;33.67;32.13;34.89;;
69608;Laerm;57251;52.248;4.812;2023-05-24T00:51:50;33.75;32.48;35.09;;
69608;Laerm;57251;52.248;4.812;2023-05-24T00:52:00;34.24;32.22;37.22;;
69608;Laerm;57251;52.248;4.812;2023-05-24T00:52:10;35.63;33.57;39.14;;
69608;Laerm;57251;52.248;4.812;2023-05-24T00:52:20;35.22;33.46;38.26;;
69608;Laerm;57251;52.248;4.812;2023-05-24T00:52:31;36.15;33.11;40.32;;
69608;Laerm;57251;52.248;4.812;2023-05-24T00:52:41;35.28;33.02;38.23;;
69608;Laerm;57251;52.248;4.812;2023-05-24T00:52:52;35.13;33.04;37.10;;
69608;Laerm;57251;52.248;4.812;2023-05-24T00:53:02;34.60;32.88;36.64;;
69608;Laerm;57251;52.248;4.812;2023-05-24T00:53:13;33.31;31.42;34.72;;
69608;Laerm;57251;52.248;4.812;2023-05-24T00:53:23;33.18;31.56;35.05;;
69608;Laerm;57251;52.248;4.812;2023-05-24T00:53:34;33.20;31.78;35.66;;
69608;Laerm;57251;52.248;4.812;2023-05-24T00:53:46;33.44;31.50;35.91;;
69608;Laerm;57251;52.248;4.812;2023-05-24T00:53:56;33.00;31.47;34.48;;
69608;Laerm;57251;52.248;4.812;2023-05-24T00:54:07;33.17;31.59;34.81;;
69608;Laerm;57251;52.248;4.812;2023-05-24T00:54:17;33.11;31.34;34.82;;
69608;Laerm;57251;52.248;4.812;2023-05-24T00:54:27;33.10;31.56;36.07;;
69608;Laerm;57251;52.248;4.812;2023-05-24T00:54:38;32.79;30.75;34.40;;
69608;Laerm;57251;52.248;4.812;2023-05-24T00:54:49;32.77;31.19;34.18;;
69608;Laerm;57251;52.248;4.812;2023-05-24T00:55:00;32.74;31.26;34.67;;
69608;Laerm;57251;52.248;4.812;2023-05-24T00:55:10;32.71;31.34;34.49;;
69608;Laerm;57251;52.248;4.812;2023-05-24T00:55:20;32.80;31.27;34.04;;
69608;Laerm;57251;52.248;4.812;2023-05-24T00:55:30;32.69;31.21;34.10;;
69608;Laerm;57251;52.248;4.812;2023-05-24T00:55:42;32.72;31.17;35.95;;
69608;Laerm;57251;52.248;4.812;2023-05-24T00:55:53;32.83;31.46;34.11;;
69608;Laerm;57251;52.248;4.812;2023-05-24T00:56:04;32.68;31.54;34.50;;
69608;Laerm;57251;52.248;4.812;2023-05-24T00:56:17;32.71;31.12;34.14;;
69608;Laerm;57251;52.248;4.812;2023-05-24T00:56:27;32.95;31.29;34.78;;
69608;Laerm;57251;52.248;4.812;2023-05-24T00:56:37;33.54;31.72;39.42;;
69608;Laerm;57251;52.248;4.812;2023-05-24T00:56:48;33.77;31.81;36.27;;
69608;Laerm;57251;52.248;4.812;2023-05-24T00:56:58;33.45;31.59;34.84;;
69608;Laerm;57251;52.248;4.812;2023-05-24T00:57:08;34.44;31.83;38.61;;
69608;Laerm;57251;52.248;4.812;2023-05-24T00:57:19;36.62;32.56;41.51;;
69608;Laerm;57251;52.248;4.812;2023-05-24T00:57:30;36.61;33.09;40.83;;
69608;Laerm;57251;52.248;4.812;2023-05-24T00:57:41;36.18;32.92;40.32;;
69608;Laerm;57251;52.248;4.812;2023-05-24T00:57:51;34.46;32.85;36.77;;
69608;Laerm;57251;52.248;4.812;2023-05-24T00:58:02;34.40;32.44;36.38;;
69608;Laerm;57251;52.248;4.812;2023-05-24T00:58:12;33.98;32.33;36.43;;
69608;Laerm;57251;52.248;4.812;2023-05-24T00:58:22;34.89;32.03;39.13;;
69608;Laerm;57251;52.248;4.812;2023-05-24T00:58:36;36.72;32.99;43.46;;
69608;Laerm;57251;52.248;4.812;2023-05-24T00:58:46;37.55;33.42;42.45;;
69608;Laerm;57251;52.248;4.812;2023-05-24T00:58:59;35.18;32.77;39.94;;
69608;Laerm;57251;52.248;4.812;2023-05-24T00:59:09;34.83;32.74;38.85;;
69608;Laerm;57251;52.248;4.812;2023-05-24T00:59:19;34.98;33.43;36.82;;